Pagina principale
METAR-TAF:

METAR-TAF

Aeroporti :

Aeroporto Internazionale di Tashkent

Taškent, Uzbekistan

latitudine: 41-16N, longitudine: 069-16E, altezza: 489 m

Osservazione

Il bollettino è stato emesso 21 minuti fa, alle 23:00 UTC
Vento 6 kt da est
Temperature 16°C
Umidità 68%
Pressione 1014 hPa
Visibilità 10 km o più
nessuna nube inferiore a 1500 m e nessun cumulonembo

METAR: UTTT 242300Z 08006KT CAVOK 16/10 Q1014 R08R/CLRD70 NOSIG

Ora: 04:21 (23:21 UTC)

Previsione

Il bollettino è stato emesso 6 ore e 21 minuti fa, alle 17:00 UTC
Previsione valida dal 24 alle 18 UTC al 25 alle 18 UTC
Vento 12 kt da est/nord-est
Visibilità 10 km o più
nessuna nube inferiore a 1500 m e nessun cumulonembo
Temporaneamente
dal 24 alle 18 UTC al 25 alle 02 UTC
Visibilità: 4000 m
fumo

TAF: UTTT 241700Z 2418/2518 07012KT CAVOK TEMPO 2418/2502 4000 FU

Osservazioni e previsioni meteorologiche di più di 4000 aeroporti (messaggi METAR e TAF).

Le stazioni disponibili sono rappresentate dai dischi gialli e rossi sulla carta.

Puntare il mouse per vedere il nome della stazione.

Clicca sopra per visualizzare le osservazioni e previsioni meteorologiche.

Per cambiare la mappa : fare clic sui pulsanti verdi con una croce nera per ingrandire, il pulsante verde con un trattino per diminuire, o sulla freccia verde per le mappe adiacenti.


METAR-TAF: